PWSweather.com
Personal Weather Stations
Station Observations
MAKAWAOWX1
Up Country Maui, Makawao, HI 96768

Up Country MauiMakawao, HI 96768

Lat: 20.856944, Lon: -156.3149667

Elevation: 1500

Station Type: Davis Vantage Pro

www.dwayneyamato@hawaiiantel.net

High Low Average
Temperature 72.7°F22.6°F 66.1°F18.9°F 68.3°F20.2°F
Dew Point 67.2°F19.6°F 59.9°F15.5°F 65.2°F18.4°F
Winds 4.6 mph SW7.4 mph SW Calm Calm 0.3 mph 0.5 mph
Wind Gusts 6.9 mph11.1 mph -- 0.5 mph0.8 mph
Humidity 97% 77% 90%
Pressure 29.95 in1014.20 in 29.83 in1010.20 in -
Precipitation 0.05 in1.30 in - -
Hour Temp Dew Point Humidity Winds Wind Gusts Pressure Precip Precip Rate Daily Precip Total
12:00 AM 67.5°F19.7°C 66.6°F19.2°C 97% Calm Calm -- 29.87 in1011.5 mb - 0.01 in0.3 mm 0.01 in0.3 mm
01:00 AM 67.3°F19.6°C 66.4°F19.1°C 97% Calm Calm -- 29.87 in1011.5 mb - 0.00 in0.0 mm 0.01 in0.3 mm
02:00 AM 66.9°F19.4°C 66.0°F18.9°C 97% Calm Calm -- 29.85 in1010.8 mb - 0.00 in0.0 mm 0.01 in0.3 mm
03:00 AM 66.9°F19.4°C 66.0°F18.9°C 97% Calm Calm -- 29.85 in1010.8 mb - 0.00 in0.0 mm 0.01 in0.3 mm
04:00 AM 66.7°F19.3°C 65.8°F18.8°C 97% Calm Calm -- 29.86 in1011.2 mb - 0.01 in0.3 mm 0.01 in0.3 mm
05:00 AM 66.4°F19.1°C 65.5°F18.6°C 97% Calm Calm -- 29.85 in1010.8 mb - 0.00 in0.0 mm 0.01 in0.3 mm
06:00 AM 66.1°F18.9°C 65.2°F18.4°C 97% Calm Calm -- 29.88 in1011.9 mb - 0.00 in0.0 mm 0.01 in0.3 mm
07:00 AM 66.8°F19.3°C 65.9°F18.8°C 97% Calm Calm -- 29.89 in1012.2 mb - 0.01 in0.3 mm 0.02 in0.5 mm
08:00 AM 66.5°F19.2°C 65.6°F18.7°C 97% Calm Calm -- 29.89 in1012.2 mb - 0.00 in0.0 mm 0.02 in0.5 mm
09:00 AM 67.9°F19.9°C 66.7°F19.3°C 96% Calm Calm -- 29.90 in1012.5 mb - 0.00 in0.0 mm 0.02 in0.5 mm
10:00 AM 69.2°F20.7°C 67.1°F19.5°C 93% Calm Calm -- 29.90 in1012.5 mb - 0.00 in0.0 mm 0.02 in0.5 mm
11:00 AM 69.5°F20.8°C 65.8°F18.8°C 88% Calm Calm -- 29.90 in1012.5 mb - 0.00 in0.0 mm 0.02 in0.5 mm
12:00 PM 72.7°F22.6°C 67.2°F19.6°C 83% 4.6 mph SW7.4 kmh SW 5.8 mph9.3 kmh 29.88 in1011.9 mb - 0.00 in0.0 mm 0.02 in0.5 mm
01:00 PM 72.1°F22.3°C 66.6°F19.2°C 83% Calm Calm -- 29.86 in1011.2 mb - 0.00 in0.0 mm 0.02 in0.5 mm
02:00 PM 70.6°F21.4°C 65.9°F18.8°C 85% 1.2 mph SW1.9 kmh SW -- 29.84 in1010.5 mb - 0.02 in0.5 mm 0.04 in1.0 mm
03:00 PM 70.5°F21.4°C 65.8°F18.8°C 85% 2.3 mph SW3.7 kmh SW 6.9 mph11.1 kmh 29.83 in1010.2 mb - 0.00 in0.0 mm 0.04 in1.0 mm
04:00 PM 70.3°F21.3°C 66.3°F19.1°C 87% Calm Calm -- 29.84 in1010.5 mb - 0.00 in0.0 mm 0.04 in1.0 mm
05:00 PM 70.1°F21.2°C 66.4°F19.1°C 88% Calm Calm -- 29.87 in1011.5 mb - 0.00 in0.0 mm 0.04 in1.0 mm
06:00 PM 68.7°F20.4°C 65.3°F18.5°C 89% Calm Calm -- 29.88 in1011.9 mb - 0.00 in0.0 mm 0.04 in1.0 mm
07:00 PM 67.9°F19.9°C 63.6°F17.6°C 86% Calm Calm -- 29.91 in1012.9 mb - 0.00 in0.0 mm 0.04 in1.0 mm
08:00 PM 67.1°F19.5°C 62.8°F17.1°C 86% Calm Calm -- 29.94 in1013.9 mb - 0.00 in0.0 mm 0.04 in1.0 mm
09:00 PM 67.2°F19.6°C 60.1°F15.6°C 78% Calm Calm -- 29.95 in1014.2 mb - 0.00 in0.0 mm 0.04 in1.0 mm
10:00 PM 67.4°F19.7°C 59.9°F15.5°C 77% Calm Calm -- 29.95 in1014.2 mb - 0.00 in0.0 mm 0.04 in1.0 mm
11:00 PM 66.1°F18.9°C 61.5°F16.4°C 85% Calm Calm -- 29.95 in1014.2 mb - 0.00 in0.0 mm 0.04 in1.0 mm